Flight Track Log - Related Links

Times and Time Zones

All times are in EDT time to prevent confusion due to time zone crossing. See the N302QS flight status page for this flight to view local times or setup timezone preferences in your user account.

Time Position Orientation Groundspeed Altitude Reporting Facility
EDT Latitude Longitude Course Direction KTS MPH feet Rate Location/Type
Sun 08:19:21 AM 40.8239 -96.7346 138° Southeast 176 203 3,800  Level FlightAware ADS-B
Sun 08:19:35 AM 40.8150 -96.7235 137° Southeast 192 221 4,400 2,667 Climbing FlightAware ADS-B
Sun 08:19:39 AM 40.8125 -96.7202 135° Southeast 197 227 4,600 2,571 Climbing FlightAware ADS-B
Sun 08:19:42 AM 40.8107 -96.7170 127° Southeast 207 238 4,700 1,333 Climbing FlightAware ADS-B
Sun 08:19:48 AM 40.8077 -96.7105 121° Southeast 218 251 4,800 1,000 Climbing FlightAware ADS-B
Sun 08:19:54 AM 40.8050 -96.7025 114° Southeast 232 267 4,900 1,091 Climbing FlightAware ADS-B
Sun 08:19:59 AM 40.8037 -96.6962 105° East 244 281 5,000 750 Climbing FlightAware ADS-B
Sun 08:20:02 AM 40.8032 -96.6907 97° East 254 292 5,000  Level FlightAware ADS-B
Sun 08:20:05 AM 40.8032 -96.6859 90° East 261 300 5,000 750 Level FlightAware ADS-B
Sun 08:20:10 AM 40.8039 -96.6791 82° East 267 307 5,100 667 Climbing FlightAware ADS-B
Sun 08:20:14 AM 40.8056 -96.6718 73° East 270 311 5,100 -857 Level FlightAware ADS-B
Sun 08:20:17 AM 40.8073 -96.6674 63° Northeast 271 312 5,000 -1,000 Descending FlightAware ADS-B
Sun 08:20:20 AM 40.8093 -96.6631 58° Northeast 270 311 5,000  Level FlightAware ADS-B
Sun 08:20:24 AM 40.8121 -96.6587 50° Northeast 269 310 5,000  Level FlightAware ADS-B
Sun 08:20:27 AM 40.8154 -96.6545 44° Northeast 267 307 5,000  Level FlightAware ADS-B
Sun 08:20:31 AM 40.8184 -96.6513 39° Northeast 265 305 5,000  Level FlightAware ADS-B
Sun 08:20:43 AM 40.8305 -96.6385 39° Northeast 258 297 5,000  Level FlightAware ADS-B
Sun 08:20:50 AM 40.8367 -96.6314 41° Northeast 253 291 5,000  Level FlightAware ADS-B
Sun 08:21:05 AM 40.8495 -96.6161 42° Northeast 239 275 5,000  Level FlightAware ADS-B
Sun 08:21:21 AM 40.8616 -96.6012 43° Northeast 231 266 5,000  Level FlightAware ADS-B
Sun 08:21:36 AM 40.8733 -96.5865 44° Northeast 228 262 5,000  Level FlightAware ADS-B
Sun 08:21:51 AM 40.8849 -96.5720 43° Northeast 226 260 5,000  Level FlightAware ADS-B
Sun 08:22:06 AM 40.8965 -96.5574 44° Northeast 231 266 5,000  Level FlightAware ADS-B
Sun 08:22:22 AM 40.9085 -96.5421 44° Northeast 237 273 5,000  Level FlightAware ADS-B
Sun 08:22:37 AM 40.9208 -96.5266 44° Northeast 241 277 5,000  Level FlightAware ADS-B
Sun 08:22:52 AM 40.9333 -96.5108 44° Northeast 243 280 5,000  Level FlightAware ADS-B
Sun 08:23:08 AM 40.9464 -96.4944 43° Northeast 244 281 5,000  Level FlightAware ADS-B
Sun 08:23:23 AM 40.9587 -96.4788 44° Northeast 245 282 5,000  Level FlightAware ADS-B
Sun 08:23:39 AM 40.9714 -96.4630 43° Northeast 246 283 5,000  Level FlightAware ADS-B
Sun 08:23:54 AM 40.9839 -96.4471 44° Northeast 246 283 5,000  Level FlightAware ADS-B
Sun 08:24:09 AM 40.9965 -96.4313 43° Northeast 248 285 5,000  Level FlightAware ADS-B
Sun 08:24:24 AM 41.0091 -96.4154 44° Northeast 248 285 5,000  Level FlightAware ADS-B
Sun 08:24:39 AM 41.0216 -96.3995 44° Northeast 248 285 5,000  Level FlightAware ADS-B
Sun 08:24:54 AM 41.0341 -96.3837 44° Northeast 248 285 5,000  Level FlightAware ADS-B
Sun 08:25:10 AM 41.0470 -96.3675 43° Northeast 248 285 5,000  Level FlightAware ADS-B
Sun 08:25:25 AM 41.0598 -96.3513 44° Northeast 248 285 5,000  Level FlightAware ADS-B
Sun 08:25:40 AM 41.0723 -96.3354 44° Northeast 249 287 5,000  Level FlightAware ADS-B
Sun 08:25:55 AM 41.0852 -96.3191 44° Northeast 250 288 5,000 -387 Level FlightAware ADS-B
Sun 08:26:11 AM 41.0979 -96.3030 44° Northeast 245 282 4,800 -1,034 Descending FlightAware ADS-B
Sun 08:26:24 AM 41.1085 -96.2896 44° Northeast 240 276 4,500 -1,071 Descending FlightAware ADS-B
Sun 08:26:39 AM 41.1204 -96.2745 44° Northeast 236 272 4,300 -800 Descending FlightAware ADS-B
Sun 08:26:54 AM 41.1324 -96.2593 44° Northeast 235 270 4,100 -600 Descending FlightAware ADS-B
Sun 08:27:09 AM 41.1444 -96.2440 44° Northeast 233 268 4,000 -194 Descending FlightAware ADS-B
Sun 08:27:25 AM 41.1562 -96.2290 44° Northeast 234 269 4,000  Level FlightAware ADS-B
Sun 08:27:40 AM 41.1683 -96.2136 44° Northeast 236 272 4,000  Level FlightAware ADS-B
Sun 08:27:55 AM 41.1805 -96.1981 44° Northeast 238 274 4,000  Level FlightAware ADS-B
Sun 08:28:10 AM 41.1927 -96.1826 44° Northeast 241 277 4,000  Level FlightAware ADS-B
Sun 08:28:26 AM 41.2054 -96.1665 44° Northeast 242 278 4,000  Level FlightAware ADS-B
Sun 08:28:41 AM 41.2176 -96.1509 44° Northeast 243 280 4,000  Level FlightAware ADS-B
Sun 08:29:01 AM 41.2336 -96.1305 44° Northeast 243 280 4,000  Level FlightAware ADS-B
Sun 08:29:23 AM 41.2512 -96.1080 44° Northeast 243 280 4,000  Level FlightAware ADS-B
Sun 08:29:42 AM 41.2663 -96.0887 44° Northeast 222 255 4,000 -387 Level FlightAware ADS-B
Sun 08:30:25 AM 41.2961 -96.0507 44° Northeast 204 235 3,600 -716 Descending FlightAware ADS-B
Sun 08:30:49 AM 41.3123 -96.0299 44° Northeast 204 235 3,200 -977 Descending FlightAware ADS-B
Sun 08:31:08 AM 41.3254 -96.0132 44° Northeast 199 229 2,900 -811 Descending FlightAware ADS-B
Sun 08:31:26 AM 41.3360 -95.9973 48° Northeast 189 217 2,700 -511 Descending FlightAware ADS-B
Sun 08:31:55 AM 41.3481 -95.9691 60° Northeast 178 205 2,500 -600 Descending FlightAware ADS-B
Sun 08:32:06 AM 41.3507 -95.9584 72° East 173 199 2,300 -889 Descending FlightAware ADS-B
Sun 08:32:22 AM 41.3515 -95.9412 86° East 165 190 2,100 -720 Descending FlightAware ADS-B
Sun 08:32:31 AM 41.3494 -95.9336 110° East 155 178 2,000 -750 Descending FlightAware ADS-B
Sun 08:32:38 AM 41.3467 -95.9298 133° Southeast 131 151 1,900 -667 Descending FlightAware ADS-B
Sun 08:33:25 AM 41.3251 -95.9111 147° Southeast 131 151 1,400 -667 Descending FlightAware ADS-B
Sun 08:33:41 AM 41.3183 -95.9048 145° Southeast 115 132 1,200 -750 Descending FlightAware ADS-B
Sun 08:34:06 AM 41.3081 -95.8952 145° Southeast 88 101 -2,880 Descending FlightAware ADS-B

Login

Don't have an account? Register now (free) for customized features, flight alerts, and more!